createdAt,value
2019-03-22T00:00:03.603Z,8.40
2019-03-22T00:02:30.117Z,8.60
2019-03-22T00:04:56.941Z,8.50
2019-03-22T00:07:25.367Z,8.60
2019-03-22T00:09:53.119Z,8.40
2019-03-22T00:12:23.300Z,8.30
2019-03-22T00:14:53.697Z,8.30
2019-03-22T00:17:20.355Z,8.40
2019-03-22T00:19:47.260Z,8.30
2019-03-22T00:22:15.176Z,9.30
2019-03-22T00:24:41.987Z,8.50
2019-03-22T00:27:16.374Z,8.40
2019-03-22T00:29:37.626Z,8.50
2019-03-22T00:32:05.191Z,8.50
2019-03-22T00:34:32.257Z,8.60
2019-03-22T00:36:59.004Z,8.60
2019-03-22T00:39:25.547Z,8.60
2019-03-22T00:41:52.461Z,9.60
2019-03-22T00:44:19.118Z,8.60
2019-03-22T00:46:46.974Z,8.60
2019-03-22T00:49:14.388Z,8.80
2019-03-22T00:51:41.253Z,8.70
2019-03-22T00:54:09.927Z,8.70
2019-03-22T00:56:36.407Z,8.70
2019-03-22T00:59:03.587Z,8.80
2019-03-22T01:01:31.254Z,8.80
2019-03-22T01:04:16.099Z,8.80
2019-03-22T01:06:43.787Z,8.90
2019-03-22T01:09:11.822Z,8.80
2019-03-22T01:11:38.473Z,8.80
2019-03-22T01:14:08.222Z,8.70
2019-03-22T01:16:35.091Z,8.80
2019-03-22T01:19:01.806Z,8.70
2019-03-22T01:21:28.635Z,8.70
2019-03-22T01:23:55.606Z,8.70
2019-03-22T01:26:23.563Z,8.70
2019-03-22T01:28:51.934Z,8.80
2019-03-22T01:31:18.710Z,8.80
2019-03-22T01:33:45.401Z,9.70
2019-03-22T01:36:12.672Z,8.70
2019-03-22T01:38:39.390Z,8.80
2019-03-22T01:41:06.210Z,8.80
2019-03-22T01:43:33.209Z,8.90
2019-03-22T01:46:01.844Z,8.80
2019-03-22T01:48:28.562Z,8.80
2019-03-22T01:50:55.643Z,8.80
2019-03-22T01:53:23.372Z,8.70
2019-03-22T01:55:50.198Z,8.60
2019-03-22T01:58:16.954Z,8.50
2019-03-22T02:00:47.642Z,8.40
2019-03-22T02:03:14.994Z,8.30
2019-03-22T02:05:41.961Z,8.30
2019-03-22T02:08:08.796Z,8.30
2019-03-22T02:10:35.661Z,8.30
2019-03-22T02:13:14.172Z,8.30
2019-03-22T02:15:40.945Z,8.30
2019-03-22T02:18:07.465Z,8.30
2019-03-22T02:20:35.451Z,8.30
2019-03-22T02:23:01.852Z,8.30
2019-03-22T02:25:28.390Z,8.30
2019-03-22T02:28:04.172Z,8.30
2019-03-22T02:30:27.445Z,8.10
2019-03-22T02:32:55.317Z,8.20
2019-03-22T02:35:29.407Z,8.20
2019-03-22T02:37:58.826Z,8.20
2019-03-22T02:40:25.296Z,8.20
2019-03-22T02:42:52.083Z,8.20
2019-03-22T02:45:19.577Z,8.10
2019-03-22T02:47:47.573Z,8.00
2019-03-22T02:50:18.409Z,8.00
2019-03-22T02:52:43.277Z,8.00
2019-03-22T02:55:10.158Z,8.00
2019-03-22T02:57:36.686Z,7.90
2019-03-22T03:00:08.461Z,7.90
2019-03-22T03:02:37.869Z,7.90
2019-03-22T03:05:07.468Z,8.00
2019-03-22T03:07:34.534Z,7.90
2019-03-22T03:10:03.557Z,7.80
2019-03-22T03:12:30.307Z,7.80
2019-03-22T03:14:57.862Z,8.00
2019-03-22T03:17:24.383Z,7.70
2019-03-22T03:19:50.790Z,7.70
2019-03-22T03:22:17.349Z,8.30
2019-03-22T03:24:44.103Z,7.60
2019-03-22T03:27:11.261Z,7.60
2019-03-22T03:29:37.823Z,7.60
2019-03-22T03:32:04.739Z,7.60
2019-03-22T03:34:31.411Z,7.80
2019-03-22T03:37:01.666Z,7.50
2019-03-22T03:39:29.908Z,7.50
2019-03-22T03:45:44.589Z,7.20
2019-03-22T03:48:13.108Z,7.10
2019-03-22T03:50:46.243Z,7.10
2019-03-22T03:53:17.840Z,7.00
2019-03-22T03:55:44.382Z,7.00
2019-03-22T03:58:11.927Z,7.00
2019-03-22T04:00:43.075Z,7.00
2019-03-22T04:03:09.580Z,7.00
2019-03-22T04:05:38.710Z,6.90
2019-03-22T04:08:06.485Z,6.90
2019-03-22T04:10:33.637Z,6.90
2019-03-22T04:13:03.056Z,6.80
2019-03-22T04:15:30.010Z,6.80
2019-03-22T04:17:59.217Z,6.60
2019-03-22T04:20:28.789Z,6.70
2019-03-22T04:22:58.495Z,6.70
2019-03-22T04:25:26.926Z,7.20
2019-03-22T04:27:53.987Z,6.70
2019-03-22T04:30:22.303Z,6.70
2019-03-22T04:32:48.832Z,6.70
2019-03-22T04:35:23.782Z,6.70
2019-03-22T04:37:50.215Z,6.50
2019-03-22T04:40:30.881Z,6.60
2019-03-22T04:43:00.023Z,6.60
2019-03-22T04:45:30.809Z,6.70
2019-03-22T04:51:45.847Z,6.70
2019-03-22T04:54:17.544Z,6.70
2019-03-22T04:56:45.161Z,6.70
2019-03-22T04:59:19.250Z,6.70
2019-03-22T05:01:45.353Z,6.80
2019-03-22T05:04:20.694Z,6.70
2019-03-22T05:06:51.354Z,6.70
2019-03-22T05:09:21.706Z,6.70
2019-03-22T05:14:43.734Z,6.70
2019-03-22T05:17:14.131Z,6.70
2019-03-22T05:19:44.845Z,6.80
2019-03-22T05:25:13.783Z,6.80
2019-03-22T05:30:57.660Z,7.40
2019-03-22T05:33:25.699Z,6.80
2019-03-22T05:41:35.173Z,6.90
2019-03-22T05:44:04.320Z,7.00
2019-03-22T05:49:25.721Z,7.00
2019-03-22T05:52:06.925Z,7.00
2019-03-22T05:54:29.826Z,7.00
2019-03-22T06:02:52.189Z,7.10
2019-03-22T06:08:08.862Z,7.00
2019-03-22T06:10:54.769Z,7.00
2019-03-22T06:13:24.864Z,7.00
2019-03-22T06:15:52.040Z,7.10
2019-03-22T06:43:14.967Z,7.40
2019-03-22T07:14:34.289Z,8.10
2019-03-22T07:17:24.289Z,7.90
2019-03-22T07:23:17.521Z,8.30
2019-03-22T07:31:57.310Z,8.70
2019-03-22T07:34:28.484Z,8.70
2019-03-22T07:53:09.712Z,8.90
2019-03-22T08:00:29.912Z,9.20
2019-03-22T08:07:56.672Z,9.40
2019-03-22T08:19:25.443Z,9.60
2019-03-22T08:23:39.673Z,9.50
2019-03-22T08:31:05.715Z,10.10
2019-03-22T08:36:28.818Z,10.20
2019-03-22T08:41:58.416Z,11.60
2019-03-22T08:44:35.706Z,10.40
2019-03-22T08:47:05.830Z,10.30
2019-03-22T08:49:38.911Z,10.50
2019-03-22T08:52:11.666Z,10.60
2019-03-22T09:03:12.733Z,11.70
2019-03-22T10:03:14.791Z,10.80
2019-03-22T10:14:24.676Z,10.10
2019-03-22T10:23:23.709Z,10.30
2019-03-22T10:47:43.221Z,11.40
2019-03-22T11:04:55.113Z,10.50
2019-03-22T11:28:48.490Z,11.10
2019-03-22T11:58:27.354Z,11.70
2019-03-22T12:03:42.084Z,11.50
2019-03-22T12:06:09.082Z,11.70
2019-03-22T12:08:36.005Z,11.70
2019-03-22T12:11:02.943Z,11.70
2019-03-22T12:13:29.697Z,11.90
2019-03-22T12:15:58.949Z,11.90
2019-03-22T12:18:25.623Z,11.70
2019-03-22T12:20:53.045Z,11.70
2019-03-22T12:23:20.187Z,11.50
2019-03-22T12:25:47.537Z,11.60
2019-03-22T12:28:22.071Z,11.70
2019-03-22T12:30:48.793Z,11.70
2019-03-22T12:33:16.630Z,11.70
2019-03-22T12:35:53.186Z,11.90
2019-03-22T12:38:19.375Z,11.80
2019-03-22T12:41:09.047Z,12.40
2019-03-22T12:43:20.436Z,11.70
2019-03-22T12:45:47.418Z,11.70
2019-03-22T12:57:00.759Z,11.90
2019-03-22T12:59:30.457Z,12.30
2019-03-22T13:07:38.522Z,12.30
2019-03-22T13:10:11.423Z,12.10
2019-03-22T13:12:38.305Z,12.10
2019-03-22T13:18:03.618Z,12.20
2019-03-22T13:20:31.525Z,11.90
2019-03-22T13:25:53.083Z,12.10
2019-03-22T13:28:19.569Z,11.50
2019-03-22T13:30:46.852Z,11.50
2019-03-22T13:33:14.295Z,11.50
2019-03-22T13:41:19.372Z,11.50
2019-03-22T13:43:48.469Z,11.70
2019-03-22T13:46:17.170Z,11.20
2019-03-22T13:48:44.807Z,11.60
2019-03-22T13:53:54.606Z,11.60
2019-03-22T13:56:24.069Z,11.80
2019-03-22T13:58:51.972Z,11.80
2019-03-22T14:01:21.015Z,11.90
2019-03-22T14:03:50.993Z,12.10
2019-03-22T14:12:04.121Z,12.00
2019-03-22T14:17:22.019Z,11.90
2019-03-22T14:19:52.842Z,11.90
2019-03-22T14:22:20.867Z,11.60
2019-03-22T16:16:05.079Z,11.20
2019-03-22T16:33:16.634Z,11.00
2019-03-22T16:39:00.255Z,11.00
2019-03-22T18:13:40.854Z,10.20
2019-03-22T18:31:50.541Z,10.00
2019-03-22T19:27:19.403Z,10.80
2019-03-22T19:29:59.399Z,9.40
2019-03-22T19:35:24.443Z,8.50
2019-03-22T19:52:33.236Z,8.90
2019-03-22T19:55:12.841Z,9.70
2019-03-22T20:37:49.784Z,7.00
2019-03-22T20:52:11.644Z,7.80
2019-03-22T21:12:10.361Z,7.30
2019-03-22T21:20:30.338Z,7.70
2019-03-22T21:26:02.933Z,7.50
2019-03-22T21:46:04.524Z,7.20
2019-03-22T21:48:33.733Z,7.40
2019-03-22T21:54:08.605Z,7.10
2019-03-22T21:59:31.879Z,7.10
2019-03-22T22:07:55.116Z,7.10
2019-03-22T22:10:27.290Z,7.00
2019-03-22T22:15:50.713Z,7.00
2019-03-22T22:18:19.013Z,7.10
2019-03-22T22:20:46.016Z,7.00
2019-03-22T22:23:14.454Z,7.10
2019-03-22T22:25:41.080Z,7.10
2019-03-22T22:28:08.791Z,7.20
2019-03-22T22:30:39.768Z,7.20
2019-03-22T22:36:17.771Z,7.30
2019-03-22T22:42:37.030Z,8.40
2019-03-22T22:44:39.595Z,8.00
2019-03-22T22:46:57.365Z,7.50
2019-03-22T22:52:50.991Z,7.50
2019-03-22T22:55:25.631Z,7.60
2019-03-22T23:00:50.125Z,7.60
2019-03-22T23:03:25.156Z,7.70
2019-03-22T23:08:41.310Z,7.70
2019-03-22T23:11:12.179Z,7.70
2019-03-22T23:13:40.151Z,7.70
2019-03-22T23:19:00.511Z,8.70
2019-03-22T23:21:27.207Z,7.70
2019-03-22T23:27:03.246Z,7.70
2019-03-22T23:30:08.988Z,7.70
2019-03-22T23:32:19.213Z,7.70
2019-03-22T23:37:38.773Z,7.60
2019-03-22T23:40:06.660Z,7.60
2019-03-22T23:42:37.169Z,7.60
2019-03-22T23:45:10.978Z,7.60
2019-03-22T23:47:37.632Z,7.60
2019-03-22T23:50:08.182Z,7.60
2019-03-22T23:52:34.809Z,7.50
2019-03-22T23:55:05.483Z,7.50
2019-03-22T23:57:33.515Z,7.50
